Time;durP1;ratioP1;P1;durP2;ratioP2;P2;SDS_P1;SDS_P2;PMS_P1;PMS_P2;Temp;Humidity;BMP_temperature;BMP_pressure;BME280_temperature;BME280_humidity;BME280_pressure;Samples;Min_cycle;Max_cycle;Signal;HPM_P1;HPM_P2
2023/09/22 00:04:57;;;;;;;667.80;628.40;;;;;;;12.41;100.00;99768.59;10498655;28;20489;-70
2023/09/22 00:09:57;;;;;;;659.42;620.78;;;;;;;12.38;100.00;99755.47;10482206;28;20112;-71
2023/09/22 00:14:58;;;;;;;677.63;637.47;;;;;;;12.53;100.00;99760.41;10482574;28;20116;-71
2023/09/22 00:19:58;;;;;;;708.03;664.88;;;;;;;12.61;100.00;99775.53;10481857;28;20409;-70
2023/09/22 00:24:59;;;;;;;688.72;647.22;;;;;;;12.55;100.00;99788.16;10486432;28;20471;-71
2023/09/22 00:29:59;;;;;;;690.50;648.85;;;;;;;12.56;100.00;99787.09;10498122;28;20105;-70
2023/09/22 00:35:00;;;;;;;663.53;624.30;;;;;;;12.52;100.00;99780.50;10480857;28;20024;-71
2023/09/22 00:40:00;;;;;;;653.40;615.13;;;;;;;12.46;100.00;99786.88;10498617;28;20028;-69
2023/09/22 00:45:01;;;;;;;687.72;646.60;;;;;;;12.48;100.00;99780.16;10498587;28;20036;-72
2023/09/22 00:50:02;;;;;;;701.15;659.03;;;;;;;12.44;100.00;99778.94;10479825;28;20437;-71
2023/09/22 00:55:02;;;;;;;677.47;637.55;;;;;;;12.46;100.00;99795.84;10462783;28;20178;-70
2023/09/22 01:00:04;;;;;;;653.20;615.47;;;;;;;12.51;100.00;99790.53;10479221;28;20028;-70
2023/09/22 01:05:07;;;;;;;649.13;611.67;;;;;;;12.57;100.00;99786.00;10495398;28;20039;-71
2023/09/22 01:10:11;;;;;;;668.92;629.50;;;;;;;12.59;100.00;99783.91;10497723;28;20111;-71
2023/09/22 01:15:12;;;;;;;726.75;682.33;;;;;;;12.60;100.00;99765.72;10495316;28;20044;-71
2023/09/22 01:20:12;;;;;;;699.90;657.45;;;;;;;12.59;100.00;99764.88;10496320;28;20052;-70
2023/09/22 01:25:13;;;;;;;697.20;654.15;;;;;;;12.61;100.00;99767.38;10497092;28;20545;-71
2023/09/22 01:30:14;;;;;;;699.55;657.55;;;;;;;12.60;100.00;99761.09;10496654;28;20112;-70
2023/09/22 01:35:14;;;;;;;700.47;657.75;;;;;;;12.57;100.00;99756.16;10496322;28;20040;-70
2023/09/22 01:40:17;;;;;;;705.03;662.08;;;;;;;12.64;100.00;99756.88;10477662;28;20048;-71
2023/09/22 01:45:17;;;;;;;722.70;678.17;;;;;;;12.59;100.00;99751.31;10496469;28;20092;-71
2023/09/22 01:50:18;;;;;;;693.03;651.10;;;;;;;12.50;100.00;99755.44;10478467;28;20068;-70
2023/09/22 01:55:20;;;;;;;708.55;665.17;;;;;;;12.47;100.00;99745.06;10497978;28;20119;-70
2023/09/22 02:00:20;;;;;;;683.92;643.13;;;;;;;12.45;100.00;99745.31;10499996;28;20043;-71
2023/09/22 02:05:21;;;;;;;666.88;626.78;;;;;;;12.46;100.00;99740.72;10497570;28;20067;-71
2023/09/22 02:10:21;;;;;;;678.78;638.60;;;;;;;12.44;100.00;99750.97;10478111;28;20557;-71
2023/09/22 02:15:22;;;;;;;682.47;641.53;;;;;;;12.46;100.00;99732.56;10478731;28;20060;-71
2023/09/22 02:20:22;;;;;;;694.30;652.65;;;;;;;12.53;100.00;99730.53;10503584;28;20426;-71
2023/09/22 02:25:23;;;;;;;665.83;626.42;;;;;;;12.58;100.00;99730.66;10485785;28;20115;-71
2023/09/22 02:30:24;;;;;;;663.55;624.38;;;;;;;12.62;100.00;99731.81;10485994;28;20037;-71
2023/09/22 02:35:25;;;;;;;672.60;632.75;;;;;;;12.63;100.00;99728.03;10503193;28;20032;-71
2023/09/22 02:40:25;;;;;;;678.05;637.53;;;;;;;12.66;100.00;99726.72;10504041;28;20037;-71
2023/09/22 02:45:26;;;;;;;697.88;655.80;;;;;;;12.68;100.00;99727.31;10503086;28;20028;-71
2023/09/22 02:50:27;;;;;;;695.17;652.85;;;;;;;12.76;100.00;99729.66;10503390;28;20067;-71
2023/09/22 02:55:27;;;;;;;699.83;657.38;;;;;;;12.72;100.00;99732.03;10502312;28;20131;-71
2023/09/22 03:00:27;;;;;;;726.40;682.03;;;;;;;12.73;100.00;99730.97;10502194;28;20083;-71
2023/09/22 03:05:30;;;;;;;700.28;657.88;;;;;;;12.75;100.00;99734.25;10499859;28;20494;-71
2023/09/22 03:10:33;;;;;;;718.20;673.80;;;;;;;12.70;100.00;99731.47;10485059;28;20132;-71
2023/09/22 03:15:34;;;;;;;707.83;664.85;;;;;;;12.68;100.00;99735.47;10501458;28;20116;-71
2023/09/22 03:20:35;;;;;;;718.63;674.97;;;;;;;12.68;100.00;99735.47;10499928;28;20056;-71
2023/09/22 03:25:35;;;;;;;699.47;655.80;;;;;;;12.68;100.00;99732.75;10483049;28;20421;-70
2023/09/22 03:30:36;;;;;;;719.30;675.58;;;;;;;12.86;100.00;99724.44;10501137;28;20105;-70
2023/09/22 03:35:38;;;;;;;725.72;680.53;;;;;;;12.95;100.00;99725.69;10501266;28;20067;-71
2023/09/22 03:40:41;;;;;;;696.75;654.63;;;;;;;13.04;100.00;99723.41;10499350;28;20041;-71
2023/09/22 03:45:41;;;;;;;739.92;694.03;;;;;;;13.05;100.00;99725.09;10498417;28;20032;-71
2023/09/22 03:50:42;;;;;;;755.78;708.58;;;;;;;13.13;100.00;99715.72;10483140;28;20071;-71
2023/09/22 03:55:44;;;;;;;755.42;707.72;;;;;;;13.23;100.00;99722.16;10498557;28;20032;-71
2023/09/22 04:00:44;;;;;;;794.28;744.05;;;;;;;13.14;100.00;99722.78;10499475;28;20476;-71
2023/09/22 04:05:45;;;;;;;762.83;715.08;;;;;;;13.15;100.00;99717.13;10482987;28;20064;-71
2023/09/22 04:10:46;;;;;;;780.38;731.00;;;;;;;13.11;100.00;99715.94;10483064;28;20038;-71
2023/09/22 04:15:46;;;;;;;771.83;722.47;;;;;;;12.91;100.00;99721.00;10500198;28;20120;-72
2023/09/22 04:20:50;;;;;;;734.53;689.03;;;;;;;12.83;100.00;99737.66;10503650;28;20507;-71
2023/09/22 04:25:54;;;;;;;747.85;701.50;;;;;;;12.92;100.00;99731.63;10482370;28;20071;-71
2023/09/22 04:30:55;;;;;;;709.67;666.67;;;;;;;13.03;100.00;99732.66;10500414;28;20437;-71
2023/09/22 04:35:55;;;;;;;702.53;659.78;;;;;;;13.03;100.00;99730.75;10499602;28;20048;-71
2023/09/22 04:40:56;;;;;;;692.10;650.65;;;;;;;13.05;100.00;99735.97;10499049;28;20123;-71
2023/09/22 04:45:57;;;;;;;718.13;674.30;;;;;;;13.09;100.00;99737.13;10498245;28;20056;-71
2023/09/22 04:50:58;;;;;;;720.95;676.72;;;;;;;13.14;100.00;99744.53;10497283;28;20064;-70
2023/09/22 04:56:00;;;;;;;731.22;685.75;;;;;;;13.09;100.00;99747.16;10497513;28;20036;-69
2023/09/22 05:01:02;;;;;;;721.70;677.72;;;;;;;13.00;100.00;99738.56;10495709;28;20040;-70
2023/09/22 05:06:06;;;;;;;696.63;654.33;;;;;;;12.95;100.00;99746.59;10497019;28;20053;-72
2023/09/22 05:11:07;;;;;;;682.58;641.92;;;;;;;12.78;100.00;99746.53;10495825;28;20041;-70
2023/09/22 05:16:13;;;;;;;676.22;636.85;;;;;;;12.57;100.00;99764.28;10496988;28;20097;-69
2023/09/22 05:21:13;;;;;;;622.42;587.42;;;;;;;12.56;100.00;99765.38;10478684;28;20063;-71
2023/09/22 05:26:13;;;;;;;622.90;587.80;;;;;;;12.60;100.00;99765.72;10496250;28;20404;-68
2023/09/22 05:31:14;;;;;;;597.63;565.33;;;;;;;12.55;100.00;99778.13;10495617;28;20039;-70
2023/09/22 05:36:14;;;;;;;583.22;552.13;;;;;;;12.64;100.00;99775.06;10478744;28;20040;-70
2023/09/22 05:41:15;;;;;;;562.05;531.75;;;;;;;12.64;100.00;99783.19;10496056;28;20070;-70
2023/09/22 05:46:15;;;;;;;560.45;531.05;;;;;;;12.66;100.00;99790.03;10496091;28;20067;-70
2023/09/22 05:51:16;;;;;;;572.95;542.13;;;;;;;12.62;100.00;99788.84;10494774;28;20078;-71
2023/09/22 05:56:16;;;;;;;532.30;505.15;;;;;;;12.62;100.00;99797.00;10494626;28;20093;-71
2023/09/22 06:01:16;;;;;;;522.35;495.98;;;;;;;12.66;100.00;99798.16;10496179;28;20116;-71
2023/09/22 06:06:17;;;;;;;540.13;512.28;;;;;;;12.71;100.00;99802.91;10494384;28;20037;-71
2023/09/22 06:11:18;;;;;;;516.35;490.00;;;;;;;12.68;100.00;99796.06;10495084;28;20077;-71
2023/09/22 06:16:19;;;;;;;539.05;511.30;;;;;;;12.69;100.00;99802.31;10494183;28;20086;-72
2023/09/22 06:21:20;;;;;;;529.42;502.25;;;;;;;12.71;100.00;99817.31;10493200;28;20057;-72
2023/09/22 06:26:21;;;;;;;481.38;457.65;;;;;;;12.56;100.00;99816.97;10495589;28;20409;-70
2023/09/22 06:31:22;;;;;;;476.60;453.23;;;;;;;12.43;100.00;99804.44;10479170;28;20032;-72
2023/09/22 06:36:22;;;;;;;444.52;422.83;;;;;;;12.47;100.00;99807.50;10493446;28;20037;-71
2023/09/22 06:41:23;;;;;;;449.80;428.15;;;;;;;13.90;100.00;99808.50;10477402;28;20037;-72
2023/09/22 06:46:23;;;;;;;496.30;471.52;;;;;;;14.54;100.00;99805.47;10493525;28;20496;-72
2023/09/22 06:51:24;;;;;;;548.10;519.63;;;;;;;14.13;100.00;99826.56;10492248;28;20044;-72
2023/09/22 06:56:24;;;;;;;470.98;448.08;;;;;;;13.90;100.00;99830.28;10495350;28;20334;-71
2023/09/22 07:01:24;;;;;;;450.98;428.98;;;;;;;13.91;100.00;99844.69;10476720;28;20037;-73
2023/09/22 07:06:25;;;;;;;433.65;412.38;;;;;;;13.89;100.00;99855.03;10501259;28;20082;-72
2023/09/22 07:11:25;;;;;;;394.60;375.48;;;;;;;13.84;100.00;99860.38;10501313;28;20491;-73
2023/09/22 07:16:26;;;;;;;422.55;401.88;;;;;;;13.92;100.00;99871.69;10501784;28;20441;-72
2023/09/22 07:21:27;;;;;;;375.65;357.40;;;;;;;13.62;100.00;99873.84;10482907;28;20133;-72
2023/09/22 07:26:27;;;;;;;381.98;363.92;;;;;;;13.38;100.00;99871.19;10500051;28;20123;-71
2023/09/22 07:31:30;;;;;;;361.25;344.20;;;;;;;13.15;100.00;99887.56;10483622;28;20130;-72
2023/09/22 07:36:31;;;;;;;357.98;340.90;;;;;;;13.28;100.00;99889.22;10481833;28;20092;-72
2023/09/22 07:41:31;;;;;;;394.08;374.83;;;;;;;14.01;100.00;99902.06;10465272;28;20037;-73
2023/09/22 07:46:31;;;;;;;464.35;441.55;;;;;;;14.02;100.00;99901.00;10500292;28;20134;-72
2023/09/22 07:51:33;;;;;;;466.27;443.00;;;;;;;13.60;100.00;99916.78;10500231;28;20121;-72
2023/09/22 07:56:34;;;;;;;468.73;445.75;;;;;;;13.35;100.00;99909.75;10483164;28;20036;-72
2023/09/22 08:01:34;;;;;;;434.83;413.48;;;;;;;13.13;100.00;99920.41;10481067;28;20028;-71
2023/09/22 08:06:34;;;;;;;414.75;394.90;;;;;;;13.05;100.00;99931.66;10500172;28;20357;-72
2023/09/22 08:11:35;;;;;;;390.70;372.20;;;;;;;13.12;100.00;99943.22;10500518;28;20075;-71
2023/09/22 08:16:35;;;;;;;403.23;384.10;;;;;;;13.23;100.00;99942.34;10501086;28;20072;-71
2023/09/22 08:21:38;;;;;;;445.52;424.13;;;;;;;13.31;100.00;99945.84;10482329;28;20114;-71
2023/09/22 08:26:41;;;;;;;449.38;428.08;;;;;;;13.20;100.00;99940.13;10480832;28;20135;-70
2023/09/22 08:31:42;;;;;;;490.92;466.58;;;;;;;13.47;100.00;99945.09;10499273;28;20036;-71
2023/09/22 08:36:43;;;;;;;548.70;519.72;;;;;;;13.84;100.00;99947.44;10498992;28;20041;-71
2023/09/22 08:41:44;;;;;;;557.35;528.20;;;;;;;14.25;100.00;99970.81;10500174;28;20045;-70
2023/09/22 08:46:44;;;;;;;601.30;568.17;;;;;;;14.26;100.00;99974.38;10498824;28;20056;-71
2023/09/22 08:51:45;;;;;;;618.42;583.92;;;;;;;14.21;100.00;99974.28;10497772;28;20037;-71
2023/09/22 08:56:45;;;;;;;628.95;593.13;;;;;;;14.98;100.00;99977.25;10479920;28;20020;-70
2023/09/22 09:01:45;;;;;;;658.70;620.35;;;;;;;16.19;100.00;99976.41;10497609;28;20064;-70
2023/09/22 09:06:46;;;;;;;733.50;688.10;;;;;;;17.31;100.00;99978.44;10495545;28;20040;-69
2023/09/22 09:12:00;;;;;;;769.58;720.88;;;;;;;18.56;100.00;99981.09;10478919;28;20048;-69
2023/09/22 09:17:00;;;;;;;738.88;692.45;;;;;;;17.25;100.00;99988.53;10495138;28;20539;-70
2023/09/22 09:22:11;;;;;;;581.42;549.40;;;;;;;16.49;100.00;99994.19;10497241;28;20198;-71
2023/09/22 09:27:18;;;;;;;499.20;473.65;;;;;;;15.86;100.00;99992.94;10496637;28;20032;-71
2023/09/22 09:32:31;;;;;;;443.58;421.30;;;;;;;15.53;100.00;100011.06;10497082;28;20024;-71
2023/09/22 09:37:31;;;;;;;434.58;412.65;;;;;;;16.02;100.00;100009.28;10495853;28;20049;-71
2023/09/22 09:42:31;;;;;;;436.88;414.83;;;;;;;16.54;100.00;100007.09;10496267;28;20045;-71
2023/09/22 09:47:34;;;;;;;486.05;461.67;;;;;;;17.23;100.00;100012.63;10494936;28;20051;-71
2023/09/22 09:52:56;;;;;;;455.63;432.25;;;;;;;16.84;100.00;100010.09;10496986;28;20044;-71
2023/09/22 09:57:57;;;;;;;474.10;449.83;;;;;;;16.21;100.00;100015.22;10495207;28;20124;-71
2023/09/22 10:02:58;;;;;;;468.13;444.02;;;;;;;16.44;100.00;100016.84;10494391;28;20032;-70
2023/09/22 10:07:58;;;;;;;452.48;429.95;;;;;;;17.40;100.00;100020.66;10495465;28;20036;-72
2023/09/22 10:12:59;;;;;;;531.47;503.05;;;;;;;17.55;100.00;100028.13;10478625;28;20032;-70
2023/09/22 10:17:59;;;;;;;547.20;517.35;;;;;;;17.62;100.00;100023.25;10478039;28;20032;-70
2023/09/22 10:23:19;;;;;;;505.98;479.98;;;;;;;18.27;100.00;100027.38;10477931;28;20049;-70
2023/09/22 10:28:26;;;;;;;488.15;462.50;;;;;;;19.84;100.00;100013.06;10493401;28;20029;-71
2023/09/22 10:33:27;;;;;;;717.15;674.05;;;;;;;20.49;100.00;100032.28;10494975;28;20036;-71
2023/09/22 10:38:27;;;;;;;600.67;566.75;;;;;;;21.21;100.00;100024.31;10480529;28;20064;-73
2023/09/22 10:43:29;;;;;;;581.00;549.10;;;;;;;21.66;100.00;100025.81;10501981;28;20032;-74
2023/09/22 10:48:31;;;;;;;366.38;347.88;;;;;;;21.64;100.00;100038.25;10504712;28;20041;-72
2023/09/22 10:53:34;;;;;;;375.67;356.77;;;;;;;20.07;100.00;100048.19;10486007;28;20040;-72
2023/09/22 10:58:34;;;;;;;594.10;562.05;;;;;;;18.37;100.00;100037.53;10501841;28;20033;-72
2023/09/22 11:03:38;;;;;;;654.35;617.75;;;;;;;17.55;100.00;100042.66;10501922;28;20159;-73
2023/09/22 11:08:52;;;;;;;650.15;611.05;;;;;;;18.95;100.00;100040.09;10484428;28;20049;-73
2023/09/22 11:13:56;;;;;;;526.83;501.27;;;;;;;19.27;100.00;100051.66;10499578;28;20037;-72
2023/09/22 11:19:04;;;;;;;346.60;332.27;;;;;;;18.28;100.00;100059.19;10483246;28;20082;-72
2023/09/22 11:24:06;;;;;;;442.45;419.45;;;;;;;18.09;100.00;100074.44;10502048;28;20028;-72
2023/09/22 11:29:06;;;;;;;402.33;383.88;;;;;;;20.15;100.00;100060.50;10500731;28;20426;-71
2023/09/22 11:34:07;;;;;;;335.55;321.08;;;;;;;20.32;100.00;100055.44;10500630;28;20094;-72
2023/09/22 11:39:08;;;;;;;295.50;283.23;;;;;;;20.94;100.00;100069.69;10500693;28;20051;-72
2023/09/22 11:44:12;;;;;;;391.80;374.75;;;;;;;21.14;100.00;100066.75;10482983;28;20069;-73
2023/09/22 11:49:13;;;;;;;338.42;324.13;;;;;;;20.27;100.00;100069.25;10481273;28;20051;-73
2023/09/22 11:54:14;;;;;;;699.35;643.95;;;;;;;20.50;100.00;100076.00;10464825;28;20033;-72
2023/09/22 11:59:17;;;;;;;812.72;741.40;;;;;;;21.03;100.00;100069.91;10500600;28;20033;-71
2023/09/22 12:04:22;;;;;;;285.45;272.08;;;;;;;20.39;100.00;100077.16;10481689;28;20032;-71
2023/09/22 12:09:23;;;;;;;272.80;261.75;;;;;;;20.54;100.00;100096.34;10499273;28;20040;-73
2023/09/22 12:14:23;;;;;;;438.25;415.05;;;;;;;20.19;100.00;100109.13;10465918;28;20028;-71
2023/09/22 12:19:25;;;;;;;263.13;252.07;;;;;;;19.68;100.00;100102.94;10498565;28;20063;-72
2023/09/22 12:24:26;;;;;;;298.75;286.88;;;;;;;19.38;100.00;100114.78;10500249;28;20032;-71
2023/09/22 12:29:26;;;;;;;250.05;239.57;;;;;;;18.91;100.00;100113.09;10498215;28;20028;-71
2023/09/22 12:34:27;;;;;;;470.48;444.05;;;;;;;18.89;100.00;100110.63;10497531;28;20036;-71
2023/09/22 12:39:27;;;;;;;234.82;225.35;;;;;;;18.68;100.00;100120.69;10497872;28;20040;-72
2023/09/22 12:44:28;;;;;;;281.10;269.63;;;;;;;18.19;100.00;100132.03;10496753;28;20460;-71
2023/09/22 12:49:28;;;;;;;319.88;305.95;;;;;;;18.05;100.00;100128.94;10497569;28;20357;-72
2023/09/22 12:54:29;;;;;;;420.98;399.85;;;;;;;17.77;100.00;100132.91;10496616;28;20037;-71
2023/09/22 12:59:29;;;;;;;354.30;337.90;;;;;;;17.50;100.00;100127.47;10497064;28;20032;-71
2023/09/22 13:04:31;;;;;;;404.70;385.23;;;;;;;17.37;100.00;100136.94;10496011;28;20383;-72
2023/09/22 13:09:31;;;;;;;396.88;379.10;;;;;;;17.55;100.00;100133.00;10496569;28;20038;-71
2023/09/22 13:14:32;;;;;;;426.73;407.90;;;;;;;17.74;100.00;100136.13;10477937;28;20044;-71
2023/09/22 13:19:32;;;;;;;1364.82;945.42;;;;;;;17.71;100.00;100130.34;10477548;28;20436;-72
2023/09/22 13:24:33;;;;;;;444.13;424.15;;;;;;;17.53;100.00;100128.84;10478230;28;20097;-71
2023/09/22 13:29:34;;;;;;;458.75;437.63;;;;;;;17.62;100.00;100132.75;10495976;28;20131;-72
2023/09/22 13:34:35;;;;;;;448.70;428.30;;;;;;;17.53;100.00;100132.41;10496606;28;20036;-70
2023/09/22 13:39:35;;;;;;;428.98;409.63;;;;;;;17.60;100.00;100132.19;10494986;28;20419;-70
2023/09/22 13:44:35;;;;;;;457.20;436.27;;;;;;;17.81;100.00;100139.50;10477825;28;20044;-71
2023/09/22 13:49:37;;;;;;;448.67;428.42;;;;;;;17.81;100.00;100141.41;10495980;28;20025;-71
2023/09/22 13:54:38;;;;;;;454.98;434.33;;;;;;;17.75;100.00;100151.47;10494617;28;20116;-70
2023/09/22 13:59:38;;;;;;;485.52;462.00;;;;;;;17.66;100.00;100145.66;10495215;28;20056;-70
2023/09/22 14:04:39;;;;;;;445.52;425.38;;;;;;;17.82;100.00;100146.59;10495103;28;20072;-71
2023/09/22 14:09:39;;;;;;;476.10;454.15;;;;;;;18.22;100.00;100147.94;10477990;28;20062;-70
2023/09/22 14:14:40;;;;;;;693.38;648.25;;;;;;;18.81;100.00;100152.31;10482922;28;20028;-71
2023/09/22 14:19:40;;;;;;;470.25;448.65;;;;;;;19.84;100.00;100156.75;10503583;28;20060;-71
2023/09/22 14:24:41;;;;;;;565.85;536.13;;;;;;;19.41;100.00;100156.22;10503995;28;20064;-71
2023/09/22 14:29:42;;;;;;;482.08;459.73;;;;;;;18.68;100.00;100148.13;10503494;28;20044;-70
2023/09/22 14:34:42;;;;;;;462.77;441.58;;;;;;;18.19;100.00;100159.44;10503665;28;20428;-71
2023/09/22 14:39:43;;;;;;;593.67;560.30;;;;;;;18.56;100.00;100170.28;10503242;28;20102;-70
2023/09/22 14:44:43;;;;;;;444.90;424.92;;;;;;;18.63;100.00;100172.78;10503806;28;20352;-71
2023/09/22 14:49:44;;;;;;;450.13;429.77;;;;;;;18.42;100.00;100171.88;10484986;28;20101;-71
2023/09/22 14:54:44;;;;;;;465.08;442.83;;;;;;;18.08;100.00;100185.13;10502787;28;20032;-70
2023/09/22 14:59:45;;;;;;;444.02;424.15;;;;;;;17.75;100.00;100178.84;10500699;28;20040;-70
2023/09/22 15:04:45;;;;;;;477.25;455.20;;;;;;;17.52;100.00;100192.91;10500409;28;20084;-70
2023/09/22 15:09:46;;;;;;;487.48;464.77;;;;;;;17.35;100.00;100193.84;10501145;28;20036;-70
2023/09/22 15:14:46;;;;;;;498.85;475.10;;;;;;;17.24;100.00;100191.28;10483443;28;20040;-72
2023/09/22 15:19:50;;;;;;;478.35;456.17;;;;;;;17.18;100.00;100185.75;10482308;28;20044;-70
2023/09/22 15:24:50;;;;;;;487.40;464.45;;;;;;;17.14;100.00;100181.06;10432751;28;20485;-70
2023/09/22 15:29:51;;;;;;;499.73;475.35;;;;;;;17.11;100.00;100173.38;10450602;28;20045;-69
2023/09/22 15:34:51;;;;;;;469.15;447.48;;;;;;;16.86;100.00;100193.06;10451693;28;20188;-70
2023/09/22 15:39:51;;;;;;;478.25;455.88;;;;;;;16.71;100.00;100189.03;10419145;28;20046;-70
2023/09/22 15:44:52;;;;;;;502.77;478.33;;;;;;;16.71;100.00;100196.41;10449831;28;20057;-70
2023/09/22 15:49:53;;;;;;;475.23;453.00;;;;;;;16.72;100.00;100195.34;10417713;28;20492;-70
2023/09/22 15:54:53;;;;;;;495.98;472.63;;;;;;;16.65;100.00;100205.63;10415284;28;20116;-70
2023/09/22 15:59:54;;;;;;;488.70;465.55;;;;;;;16.56;100.00;100204.41;10449292;28;20466;-70
2023/09/22 16:04:54;;;;;;;512.50;487.88;;;;;;;16.40;100.00;100206.97;10416762;28;20034;-72
2023/09/22 16:09:55;;;;;;;506.67;482.48;;;;;;;16.09;100.00;100205.72;10417507;28;20048;-71
2023/09/22 16:14:55;;;;;;;514.65;489.80;;;;;;;15.84;100.00;100213.53;10449176;28;20121;-71
2023/09/22 16:19:56;;;;;;;541.58;514.85;;;;;;;15.64;100.00;100223.00;10416280;28;20052;-69
2023/09/22 16:24:56;;;;;;;538.53;512.08;;;;;;;15.41;100.00;100226.72;10480353;28;20067;-70
2023/09/22 16:29:57;;;;;;;563.67;535.60;;;;;;;15.26;100.00;100231.91;10497829;28;20141;-70
2023/09/22 16:34:57;;;;;;;593.42;562.33;;;;;;;15.04;100.00;100231.75;10499118;28;20036;-70
2023/09/22 16:40:01;;;;;;;587.53;557.33;;;;;;;14.82;100.00;100235.13;10497633;28;20123;-69
2023/09/22 16:45:02;;;;;;;590.63;560.25;;;;;;;14.58;100.00;100238.97;10479822;28;20415;-70
2023/09/22 16:50:03;;;;;;;611.13;579.00;;;;;;;14.39;100.00;100250.03;10497110;28;20044;-70
2023/09/22 16:55:04;;;;;;;545.78;518.47;;;;;;;14.17;100.00;100257.13;10497209;28;20033;-69
2023/09/22 17:00:05;;;;;;;479.90;457.65;;;;;;;13.97;100.00;100271.06;10479180;28;20055;-69
2023/09/22 17:05:06;;;;;;;512.65;487.95;;;;;;;13.84;100.00;100284.91;10496302;28;20083;-68
2023/09/22 17:10:07;;;;;;;563.63;535.28;;;;;;;13.78;100.00;100305.72;10497331;28;20048;-67
2023/09/22 17:15:08;;;;;;;639.70;604.47;;;;;;;13.70;100.00;100306.91;10499456;28;20049;-68
2023/09/22 17:20:09;;;;;;;688.38;648.97;;;;;;;13.52;100.00;100296.06;10481318;28;20479;-66
2023/09/22 17:25:10;;;;;;;710.65;668.85;;;;;;;13.45;100.00;100317.09;10497753;28;20062;-67
2023/09/22 17:30:11;;;;;;;718.92;676.28;;;;;;;13.47;100.00;100318.53;10496607;28;20037;-68
2023/09/22 17:35:11;;;;;;;698.47;658.08;;;;;;;13.35;100.00;100312.22;10494941;28;20040;-67
2023/09/22 17:40:12;;;;;;;701.25;660.50;;;;;;;13.25;100.00;100320.09;10494969;28;20041;-66
2023/09/22 17:45:12;;;;;;;723.13;679.67;;;;;;;13.13;100.00;100324.63;10494169;28;20042;-66
2023/09/22 17:50:13;;;;;;;735.97;691.85;;;;;;;13.07;100.00;100331.78;10493431;28;20102;-67
2023/09/22 17:55:13;;;;;;;745.45;699.72;;;;;;;13.11;100.00;100337.59;10495962;28;20130;-67
2023/09/22 18:00:14;;;;;;;710.70;669.28;;;;;;;13.10;100.00;100335.94;10495477;28;20060;-66
2023/09/22 18:05:15;;;;;;;734.90;690.70;;;;;;;13.21;100.00;100355.03;10494202;28;20029;-67
2023/09/22 18:10:15;;;;;;;796.13;744.55;;;;;;;13.32;100.00;100379.84;10495154;28;20075;-68
2023/09/22 18:15:16;;;;;;;818.25;765.13;;;;;;;13.21;100.00;100382.22;10477409;28;20353;-69
2023/09/22 18:20:16;;;;;;;825.85;771.97;;;;;;;13.20;100.00;100385.16;10496017;28;20074;-69
2023/09/22 18:25:17;;;;;;;802.45;751.03;;;;;;;13.13;100.00;100389.84;10477089;28;20500;-70
2023/09/22 18:30:17;;;;;;;775.15;726.38;;;;;;;13.00;100.00;100399.00;10495432;28;20156;-69
2023/09/22 18:35:18;;;;;;;745.45;699.33;;;;;;;12.85;100.00;100396.63;10476875;28;20032;-69
2023/09/22 18:40:19;;;;;;;823.67;769.72;;;;;;;12.64;100.00;100402.50;10493692;28;20107;-71
2023/09/22 18:45:19;;;;;;;740.13;695.40;;;;;;;12.44;100.00;100413.50;10493459;28;20524;-70
2023/09/22 18:50:20;;;;;;;785.17;735.10;;;;;;;12.26;100.00;100428.69;10494597;28;20214;-72
2023/09/22 18:55:20;;;;;;;765.58;718.03;;;;;;;12.27;100.00;100443.09;10494973;28;20429;-70
2023/09/22 19:00:22;;;;;;;771.67;723.10;;;;;;;12.23;100.00;100460.91;10482451;28;20104;-69
2023/09/22 19:05:24;;;;;;;764.05;716.20;;;;;;;12.18;100.00;100464.25;10502227;28;20041;-72
2023/09/22 19:10:25;;;;;;;851.15;795.45;;;;;;;12.12;100.00;100467.00;10490177;28;20041;-72
2023/09/22 19:15:26;;;;;;;860.92;804.03;;;;;;;12.09;100.00;100479.13;10504671;28;20586;-71
2023/09/22 19:20:26;;;;;;;801.40;749.78;;;;;;;12.00;100.00;100480.44;10502294;28;20151;-71
2023/09/22 19:25:30;;;;;;;787.80;737.22;;;;;;;11.91;100.00;100488.00;10466659;28;20029;-71
2023/09/22 19:30:30;;;;;;;799.58;748.00;;;;;;;11.78;100.00;100493.47;10501700;28;20028;-70
2023/09/22 19:35:30;;;;;;;850.13;794.50;;;;;;;11.77;100.00;100480.94;10484068;28;20055;-71
2023/09/22 19:40:31;;;;;;;836.55;781.80;;;;;;;11.83;100.00;100502.59;10501186;28;20068;-72
2023/09/22 19:45:31;;;;;;;834.53;779.95;;;;;;;11.71;100.00;100493.50;10502347;28;20078;-71
2023/09/22 19:50:33;;;;;;;812.83;760.20;;;;;;;11.64;100.00;100490.78;10503271;28;20498;-71
2023/09/22 19:55:34;;;;;;;833.20;778.88;;;;;;;11.73;100.00;100496.81;10499832;28;20517;-72
2023/09/22 20:00:39;;;;;;;858.28;801.60;;;;;;;11.65;100.00;100513.34;10499268;28;20162;-71
2023/09/22 20:05:40;;;;;;;859.15;802.72;;;;;;;11.64;100.00;100506.22;10500767;28;20526;-71
2023/09/22 20:10:41;;;;;;;839.47;784.63;;;;;;;11.63;100.00;100523.56;10499255;28;20098;-72
2023/09/22 20:15:46;;;;;;;834.78;780.40;;;;;;;11.68;100.00;100514.75;10499719;28;20380;-71
2023/09/22 20:20:46;;;;;;;864.45;807.42;;;;;;;11.63;100.00;100501.84;10482753;28;20071;-71
2023/09/22 20:25:46;;;;;;;845.33;790.28;;;;;;;11.57;100.00;100500.84;10498132;28;20079;-71
2023/09/22 20:30:48;;;;;;;824.08;770.05;;;;;;;11.55;100.00;100519.22;10498670;28;20053;-71
2023/09/22 20:35:49;;;;;;;849.85;794.38;;;;;;;11.60;100.00;100513.97;10498462;28;20065;-71
2023/09/22 20:40:50;;;;;;;843.90;788.88;;;;;;;11.62;100.00;100514.59;10498336;28;20036;-71
2023/09/22 20:45:53;;;;;;;838.10;783.55;;;;;;;11.64;100.00;100520.63;10496448;28;20025;-70
2023/09/22 20:50:53;;;;;;;842.05;787.17;;;;;;;11.68;100.00;100526.47;10480804;28;20376;-71
2023/09/22 20:55:54;;;;;;;842.70;787.67;;;;;;;11.66;100.00;100520.41;10498717;28;20044;-71
2023/09/22 21:01:00;;;;;;;842.58;787.53;;;;;;;11.56;100.00;100514.63;10499186;28;20345;-70
2023/09/22 21:06:03;;;;;;;853.00;797.17;;;;;;;11.55;100.00;100530.06;10480286;28;20021;-70
2023/09/22 21:11:03;;;;;;;829.90;775.97;;;;;;;11.50;100.00;100526.31;10497380;28;20025;-70
2023/09/22 21:16:04;;;;;;;845.95;790.53;;;;;;;11.47;100.00;100527.56;10496041;28;20035;-70
2023/09/22 21:21:04;;;;;;;846.90;791.30;;;;;;;11.45;100.00;100532.34;10496261;28;20098;-69
2023/09/22 21:26:05;;;;;;;865.38;808.33;;;;;;;11.43;100.00;100539.06;10496730;28;20035;-70
2023/09/22 21:31:05;;;;;;;848.88;793.42;;;;;;;11.41;100.00;100533.84;10478572;28;20127;-70
2023/09/22 21:36:06;;;;;;;860.03;803.75;;;;;;;11.37;100.00;100533.44;10478355;28;20040;-70
2023/09/22 21:41:09;;;;;;;831.22;776.95;;;;;;;11.30;100.00;100540.75;10478338;28;20070;-71
2023/09/22 21:46:11;;;;;;;817.88;764.83;;;;;;;11.22;100.00;100543.66;10496992;28;20032;-71
2023/09/22 21:51:11;;;;;;;826.55;772.95;;;;;;;11.23;100.00;100553.47;10495653;28;20036;-70
2023/09/22 21:56:12;;;;;;;849.33;793.80;;;;;;;11.26;100.00;100557.63;10496880;28;20436;-71